Terminal Aerodrome Forecast
Issued by NWS Jackson, MS

Home | Current Version | Previous Version | Text Only | Print | Product List | Glossary On
Versions: 1 2 3 4 5 6 7 8 9 10 11 12 13
000
FTUS44 KJAN 100500
TAFGLH
TAF
KGLH 100520Z 1006/1106 VRB03KT P6SM VCTS SCT040CB BKN100
     FM101100 VRB03KT P6SM SCT070
     FM101300 02005KT P6SM SKC=

USA.gov is the U.S. government's official web portal to all federal, state and local government web resources and services.